Time;durP1;ratioP1;P1;durP2;ratioP2;P2;SDS_P1;SDS_P2;PMS_P1;PMS_P2;Temp;Humidity;BMP_temperature;BMP_pressure;BME280_temperature;BME280_humidity;BME280_pressure;Samples;Min_cycle;Max_cycle;Signal;HPM_P1;HPM_P2
2022/10/03 00:02:08;;;;;;;20.92;2.72;;;;;;;15.34;63.53;101424.81;5028396;28;96710;-68
2022/10/03 00:05:00;;;;;;;24.35;2.58;;;;;;;15.21;64.00;101426.28;5031603;28;99775;-66
2022/10/03 00:07:49;;;;;;;22.23;2.88;;;;;;;14.86;65.46;101429.59;5028816;28;99136;-66
2022/10/03 00:10:28;;;;;;;19.38;3.47;;;;;;;14.70;66.27;101435.53;5032913;28;97645;-67
2022/10/03 00:13:20;;;;;;;23.38;2.85;;;;;;;14.67;66.56;101433.03;5032977;28;96879;-66
2022/10/03 00:15:53;;;;;;;18.08;3.88;;;;;;;15.06;65.24;101441.13;5028269;27;99082;-64
2022/10/03 00:18:35;;;;;;;21.20;3.55;;;;;;;15.13;64.86;101441.72;5030292;28;100959;-66
2022/10/03 00:21:16;;;;;;;21.85;2.50;;;;;;;15.11;64.89;101441.78;5033285;28;97179;-66
2022/10/03 00:23:57;;;;;;;28.05;3.53;;;;;;;15.17;64.53;101448.63;5032360;28;96918;-65
2022/10/03 00:26:31;;;;;;;24.95;2.60;;;;;;;14.96;65.55;101444.25;5030762;28;99221;-66
2022/10/03 00:29:09;;;;;;;20.75;2.83;;;;;;;14.38;67.43;101454.59;5032458;28;98981;-66
2022/10/03 00:31:44;;;;;;;25.08;2.88;;;;;;;14.93;65.88;101455.00;5029136;28;96753;-66
2022/10/03 00:34:24;;;;;;;19.13;2.90;;;;;;;14.79;65.91;101450.25;5033498;28;96756;-66
2022/10/03 00:37:04;;;;;;;26.98;2.97;;;;;;;15.13;65.15;101455.03;5032359;28;98995;-66
2022/10/03 00:39:41;;;;;;;20.15;3.60;;;;;;;15.35;64.22;101460.28;5032137;28;98943;-66
2022/10/03 00:42:28;;;;;;;13.95;2.10;;;;;;;14.79;66.31;101465.34;5031348;28;97005;-66
2022/10/03 00:45:28;;;;;;;29.40;3.03;;;;;;;15.17;65.11;101459.28;5032333;28;96955;-65
2022/10/03 00:48:15;;;;;;;23.20;2.92;;;;;;;14.86;66.21;101461.50;5030372;28;98880;-66
2022/10/03 00:50:56;;;;;;;23.92;2.53;;;;;;;15.20;64.71;101459.16;5032632;28;99396;-66
2022/10/03 00:53:47;;;;;;;23.92;3.17;;;;;;;15.07;65.02;101465.94;5031555;28;96893;-66
2022/10/03 00:56:47;;;;;;;19.50;3.35;;;;;;;14.97;65.20;101473.44;5033051;28;96775;-66
2022/10/03 00:59:30;;;;;;;29.02;3.33;;;;;;;14.94;65.58;101467.38;5032841;28;98979;-66
2022/10/03 01:01:56;;;;;;;16.02;2.25;;;;;;;14.96;65.33;101458.41;5029515;28;99003;-66
2022/10/03 01:04:48;;;;;;;21.42;3.22;;;;;;;14.87;65.77;101468.56;5032337;27;96821;-65
2022/10/03 01:07:30;;;;;;;20.17;3.25;;;;;;;14.77;65.75;101474.25;5032707;28;96895;-65
2022/10/03 01:10:11;;;;;;;14.57;2.58;;;;;;;14.86;65.67;101459.72;5031886;28;99019;-66
2022/10/03 01:12:54;;;;;;;25.58;3.47;;;;;;;14.88;65.40;101463.19;5026919;28;98906;-65
2022/10/03 01:15:33;;;;;;;25.42;2.40;;;;;;;14.45;66.94;101469.38;5029369;28;96751;-65
2022/10/03 01:18:14;;;;;;;20.27;2.50;;;;;;;14.81;65.58;101476.81;5031730;27;96784;-65
2022/10/03 01:20:49;;;;;;;25.73;3.20;;;;;;;14.80;65.89;101486.59;5031407;28;99251;-65
2022/10/03 01:23:38;;;;;;;26.13;2.80;;;;;;;14.74;66.00;101487.72;5029837;28;99196;-67
2022/10/03 01:26:19;;;;;;;22.02;2.92;;;;;;;14.75;65.95;101489.44;5027401;28;97947;-65
2022/10/03 01:31:45;;;;;;;21.83;2.78;;;;;;;15.15;64.50;101487.78;5004759;27;98811;-65
2022/10/03 01:34:21;;;;;;;18.23;2.15;;;;;;;15.23;63.89;101496.28;5030955;28;99086;-66
2022/10/03 01:37:01;;;;;;;21.92;1.98;;;;;;;15.03;64.76;101496.28;5031453;28;96754;-65
2022/10/03 01:39:32;;;;;;;19.98;2.58;;;;;;;14.95;65.02;101503.72;5029924;28;97376;-65
2022/10/03 01:42:03;;;;;;;21.75;2.25;;;;;;;15.24;64.41;101502.47;5031523;27;99562;-65
2022/10/03 01:44:39;;;;;;;16.38;2.03;;;;;;;15.52;62.81;101497.69;5031975;27;98642;-66
2022/10/03 01:47:19;;;;;;;18.48;3.05;;;;;;;15.57;62.54;101508.16;5032877;28;96981;-65
2022/10/03 01:49:54;;;;;;;18.27;2.17;;;;;;;15.26;63.71;101497.94;5031008;28;96777;-65
2022/10/03 01:52:28;;;;;;;13.93;2.15;;;;;;;15.01;64.22;101509.66;5031169;28;99039;-66
2022/10/03 01:55:02;;;;;;;17.23;2.15;;;;;;;14.77;65.58;101512.47;5031310;27;98773;-65
2022/10/03 01:57:36;;;;;;;16.90;2.35;;;;;;;15.28;64.13;101504.09;5031853;27;97021;-65
2022/10/03 02:00:11;;;;;;;18.27;2.13;;;;;;;15.39;63.42;101504.47;5032122;28;96665;-65
2022/10/03 02:02:45;;;;;;;16.85;2.47;;;;;;;15.02;64.44;101511.38;5031312;27;99527;-65
2022/10/03 02:05:17;;;;;;;13.95;2.17;;;;;;;15.15;63.97;101509.94;5031530;28;98932;-66
2022/10/03 02:07:51;;;;;;;18.42;2.03;;;;;;;15.27;63.49;101511.22;5032217;28;96634;-66
2022/10/03 02:10:26;;;;;;;13.93;1.90;;;;;;;15.02;64.23;101508.72;5031580;28;96830;-67
2022/10/03 02:13:07;;;;;;;9.73;1.40;;;;;;;15.13;63.72;101516.25;5030185;27;99083;-66
2022/10/03 02:15:47;;;;;;;18.42;2.30;;;;;;;15.35;63.24;101509.09;5029803;28;99385;-66
2022/10/03 02:18:21;;;;;;;36.20;3.42;;;;;;;15.25;63.46;101513.06;5035102;28;96658;-66
2022/10/03 02:20:54;;;;;;;17.52;2.08;;;;;;;14.84;65.02;101516.56;5035241;28;96808;-65
2022/10/03 02:23:40;;;;;;;13.30;2.13;;;;;;;14.96;65.03;101521.41;5033777;28;101737;-66
2022/10/03 02:26:31;;;;;;;18.33;1.95;;;;;;;14.88;64.96;101516.41;5033541;28;98747;-67
2022/10/03 02:29:19;;;;;;;15.55;2.25;;;;;;;15.33;63.61;101510.94;5035073;28;96959;-66
2022/10/03 02:32:10;;;;;;;17.58;2.67;;;;;;;15.36;63.36;101516.13;5034684;28;96812;-66
2022/10/03 02:35:01;;;;;;;13.60;2.03;;;;;;;15.37;63.06;101522.31;5032680;28;99193;-66
2022/10/03 02:37:47;;;;;;;8.88;1.60;;;;;;;15.40;62.46;101520.41;5032740;28;98813;-66
2022/10/03 02:40:49;;;;;;;14.68;2.63;;;;;;;14.88;64.68;101524.41;5034416;28;96945;-66
2022/10/03 02:43:42;;;;;;;17.00;2.28;;;;;;;14.76;64.98;101514.25;5032820;28;96831;-66
2022/10/03 02:46:57;;;;;;;13.77;2.47;;;;;;;14.77;64.96;101529.25;5033177;28;99195;-67
2022/10/03 02:50:00;;;;;;;13.90;2.08;;;;;;;15.00;63.95;101525.69;5029383;28;97509;-66
2022/10/03 02:52:56;;;;;;;15.40;2.97;;;;;;;15.18;63.33;101524.03;5033879;28;96847;-66
2022/10/03 02:56:02;;;;;;;21.08;2.47;;;;;;;15.09;63.60;101528.84;5030734;28;97240;-66
2022/10/03 02:59:05;;;;;;;14.52;2.13;;;;;;;14.74;65.30;101532.94;4998557;27;99486;-65
2022/10/03 03:01:51;;;;;;;18.35;1.92;;;;;;;15.10;63.99;101535.00;5030177;28;99149;-67
2022/10/03 03:05:04;;;;;;;15.48;2.22;;;;;;;14.94;64.49;101549.88;5032679;28;97114;-66
2022/10/03 03:07:59;;;;;;;13.25;2.00;;;;;;;15.24;63.59;101535.28;5029013;28;96717;-66
2022/10/03 03:10:40;;;;;;;12.70;1.95;;;;;;;15.37;62.74;101547.16;5030808;28;99118;-66
2022/10/03 03:13:37;;;;;;;19.65;2.50;;;;;;;15.39;62.83;101537.31;5029479;27;98826;-66
2022/10/03 03:16:40;;;;;;;19.48;2.35;;;;;;;15.38;62.94;101546.22;5031104;28;96773;-66
2022/10/03 03:19:24;;;;;;;13.25;1.85;;;;;;;15.33;62.85;101542.03;5031039;28;98916;-66
2022/10/03 03:22:01;;;;;;;13.75;2.13;;;;;;;14.99;64.54;101545.22;5031402;27;98771;-65
2022/10/03 03:24:48;;;;;;;15.45;2.17;;;;;;;15.24;63.38;101545.94;5030542;28;99076;-66
2022/10/03 03:27:37;;;;;;;21.73;3.50;;;;;;;14.86;64.89;101546.66;5029028;28;96932;-67
2022/10/03 03:30:11;;;;;;;14.85;2.30;;;;;;;15.11;63.95;101545.59;5030978;28;96698;-65
2022/10/03 03:32:54;;;;;;;15.32;1.92;;;;;;;15.23;63.27;101544.19;5030659;28;99102;-66
2022/10/03 03:35:32;;;;;;;15.88;2.15;;;;;;;15.39;62.59;101536.44;5031219;28;98882;-66
2022/10/03 03:38:08;;;;;;;15.77;2.05;;;;;;;15.09;63.83;101538.63;5030630;28;96750;-66
2022/10/03 03:40:50;;;;;;;;;;;;;;;15.50;62.53;101537.69;5031990;28;96804;-66
2022/10/03 03:43:39;;;;;;;13.43;2.08;;;;;;;15.00;64.47;101546.97;5029843;28;99420;-66
2022/10/03 03:46:19;;;;;;;21.70;2.45;;;;;;;15.20;63.89;101560.31;5010408;28;98977;-66
2022/10/03 03:49:14;;;;;;;13.43;2.25;;;;;;;15.34;63.38;101551.75;5030603;28;99145;-66
2022/10/03 03:51:50;;;;;;;21.70;2.13;;;;;;;15.25;63.76;101568.97;5032692;28;96889;-67
2022/10/03 03:54:39;;;;;;;;;;;;;;;15.05;64.87;101561.81;5030521;28;97823;-66
2022/10/03 03:57:36;;;;;;;20.08;3.22;;;;;;;15.63;62.77;101563.84;5024387;28;99519;-66
2022/10/03 04:00:09;;;;;;;;;;;;;;;15.72;62.33;101568.78;5029297;28;96900;-66
2022/10/03 04:02:52;;;;;;;19.90;2.17;;;;;;;15.51;62.63;101570.53;5033459;28;96820;-66
2022/10/03 04:05:31;;;;;;;18.35;2.63;;;;;;;15.56;62.79;101573.06;5029065;28;99409;-65
2022/10/03 04:08:20;;;;;;;26.42;4.18;;;;;;;15.67;62.46;101582.31;5033178;28;98962;-66
2022/10/03 04:10:59;;;;;;;16.33;3.03;;;;;;;15.60;62.40;101583.50;5029793;27;97047;-66
2022/10/03 04:13:47;;;;;;;16.48;3.00;;;;;;;15.54;62.58;101584.63;5031764;28;97199;-67
2022/10/03 04:19:25;;;;;;;17.67;2.53;;;;;;;15.23;63.52;101589.47;5033513;28;97152;-66
2022/10/03 04:22:10;;;;;;;15.55;2.42;;;;;;;14.91;64.97;101580.13;5030533;28;96734;-66
2022/10/03 04:24:55;;;;;;;15.60;2.20;;;;;;;14.93;64.46;101585.41;5028536;28;97525;-67
2022/10/03 04:27:39;;;;;;;8.15;1.85;;;;;;;14.96;64.59;101594.16;5031541;28;99620;-67
2022/10/03 04:30:13;;;;;;;14.40;2.25;;;;;;;15.06;64.00;101589.28;5029287;28;102167;-66
2022/10/03 04:33:09;;;;;;;15.73;2.28;;;;;;;15.33;63.31;101587.28;5026994;28;97250;-65
2022/10/03 04:35:57;;;;;;;17.55;2.25;;;;;;;15.20;63.37;101581.63;5032176;28;97637;-66
2022/10/03 04:38:39;;;;;;;24.65;2.75;;;;;;;15.52;62.37;101591.81;5020924;28;98873;-66
2022/10/03 04:41:22;;;;;;;21.92;2.67;;;;;;;15.80;61.65;101587.97;5029959;28;98976;-67
2022/10/03 04:43:57;;;;;;;16.13;2.33;;;;;;;15.65;61.63;101589.50;5031805;27;96831;-65
2022/10/03 04:46:32;;;;;;;15.45;2.05;;;;;;;15.54;61.61;101583.75;5030843;28;96777;-67
2022/10/03 04:49:05;;;;;;;20.08;2.00;;;;;;;15.48;62.39;101587.53;5031330;28;98918;-66
2022/10/03 04:51:44;;;;;;;18.50;2.50;;;;;;;15.05;63.98;101582.25;5025310;28;98635;-66
2022/10/03 04:54:22;;;;;;;20.92;2.80;;;;;;;15.25;63.33;101595.59;5026383;28;97674;-66
2022/10/03 04:56:56;;;;;;;19.10;2.08;;;;;;;15.25;63.33;101595.59;5031735;27;96831;-67
2022/10/03 04:59:40;;;;;;;11.50;2.05;;;;;;;15.05;63.76;101598.22;5028692;28;99227;-67
2022/10/03 05:02:21;;;;;;;20.95;2.17;;;;;;;15.47;62.71;101599.09;5029619;27;99427;-66
2022/10/03 05:05:02;;;;;;;14.10;1.98;;;;;;;15.13;63.16;101596.97;5025562;28;96845;-66
2022/10/03 05:07:40;;;;;;;17.15;2.58;;;;;;;15.26;62.76;101602.66;5027829;28;98677;-66
2022/10/03 05:10:27;;;;;;;17.77;2.15;;;;;;;15.61;61.96;101603.03;5031211;28;98956;-65
2022/10/03 05:13:02;;;;;;;14.20;1.90;;;;;;;15.69;61.29;101606.19;5030634;28;98835;-67
2022/10/03 05:15:34;;;;;;;17.33;2.10;;;;;;;15.25;62.78;101602.72;5029507;28;96909;-67
2022/10/03 05:18:10;;;;;;;20.92;2.13;;;;;;;15.07;63.63;101601.69;5028927;28;96756;-68
2022/10/03 05:20:57;;;;;;;18.35;2.53;;;;;;;15.23;62.99;101609.91;5029694;28;99123;-67
2022/10/03 05:23:32;;;;;;;;;;;;;;;15.07;63.33;101610.53;5028891;28;98113;-66
2022/10/03 05:26:11;;;;;;;14.52;2.50;;;;;;;15.28;62.71;101616.78;5030171;28;96826;-66
2022/10/03 05:28:48;;;;;;;24.35;3.10;;;;;;;15.40;62.44;101610.06;5032224;28;96794;-66
2022/10/03 05:31:32;;;;;;;15.15;2.40;;;;;;;15.27;62.51;101620.38;5028956;28;102852;-67
2022/10/03 05:34:09;;;;;;;15.27;2.05;;;;;;;14.94;63.25;101614.63;5029684;28;98754;-66
2022/10/03 05:36:53;;;;;;;14.02;1.80;;;;;;;15.14;63.24;101629.78;5028438;28;97664;-66
2022/10/03 05:39:30;;;;;;;14.07;2.13;;;;;;;15.03;63.39;101624.88;5030990;28;96883;-66
2022/10/03 05:42:11;;;;;;;17.02;1.95;;;;;;;15.14;62.98;101627.13;5028349;28;99355;-66
2022/10/03 05:44:42;;;;;;;22.35;3.35;;;;;;;14.96;63.76;101634.06;5030510;28;100624;-66
2022/10/03 05:50:26;;;;;;;19.92;2.28;;;;;;;15.31;62.56;101637.94;5029529;27;96858;-66
2022/10/03 05:53:09;;;;;;;20.42;2.20;;;;;;;15.47;62.05;101633.72;5027087;28;100901;-65
2022/10/03 05:55:45;;;;;;;14.05;2.10;;;;;;;15.30;62.16;101641.53;5030168;28;98980;-65
2022/10/03 05:58:33;;;;;;;19.75;2.55;;;;;;;15.37;61.80;101648.34;5029799;28;97221;-65
2022/10/03 06:01:41;;;;;;;20.05;2.95;;;;;;;15.17;62.81;101650.94;5028641;28;97189;-66
2022/10/03 06:04:17;;;;;;;;;;;;;;;15.15;62.91;101642.19;5000475;27;99723;-67
2022/10/03 06:07:00;;;;;;;12.48;1.83;;;;;;;15.23;62.58;101644.53;5029101;28;98840;-66
2022/10/03 06:10:00;;;;;;;18.10;2.03;;;;;;;15.06;63.00;101648.72;5026156;28;96839;-66
2022/10/03 06:12:34;;;;;;;11.70;2.08;;;;;;;15.20;62.73;101644.66;5030026;28;97125;-67
2022/10/03 06:15:30;;;;;;;15.38;2.83;;;;;;;15.20;62.75;101666.81;5028094;28;99007;-66
2022/10/03 06:18:02;;;;;;;17.05;2.40;;;;;;;15.41;62.26;101659.75;5027866;28;97809;-66
2022/10/03 06:21:03;;;;;;;19.30;2.65;;;;;;;15.98;60.42;101661.78;5028000;27;96893;-67
2022/10/03 06:23:59;;;;;;;21.95;2.58;;;;;;;15.58;60.92;101675.06;5024004;28;96853;-66
2022/10/03 06:26:44;;;;;;;21.52;1.88;;;;;;;15.58;60.77;101677.72;5000655;27;99114;-67
2022/10/03 06:29:43;;;;;;;16.73;1.83;;;;;;;15.62;60.75;101690.00;5031607;28;97614;-65
2022/10/03 06:32:44;;;;;;;14.93;2.17;;;;;;;15.95;59.89;101692.09;5030688;28;98344;-66
2022/10/03 06:35:47;;;;;;;17.90;2.15;;;;;;;16.09;59.55;101688.84;5027685;28;97384;-65
2022/10/03 06:38:44;;;;;;;24.60;2.70;;;;;;;15.86;60.43;101696.97;5029035;28;99326;-66
2022/10/03 06:41:47;;;;;;;17.00;2.17;;;;;;;15.89;60.12;101699.47;5028537;28;99082;-66
2022/10/03 06:44:31;;;;;;;14.05;2.03;;;;;;;16.29;58.78;101704.84;5012704;27;97010;-66
2022/10/03 06:47:26;;;;;;;22.40;2.50;;;;;;;15.42;61.29;101706.78;5027254;28;96798;-66
2022/10/03 06:50:27;;;;;;;20.73;2.15;;;;;;;15.71;61.00;101705.59;5024584;27;99031;-66
2022/10/03 06:53:35;;;;;;;13.10;2.28;;;;;;;16.17;59.47;101699.16;5025794;28;98782;-66
2022/10/03 06:56:30;;;;;;;19.75;2.60;;;;;;;16.22;59.00;101711.38;5027800;28;97504;-66
2022/10/03 06:59:15;;;;;;;14.57;1.83;;;;;;;16.08;59.17;101703.09;5030442;28;96865;-68
2022/10/03 07:02:14;;;;;;;17.83;3.30;;;;;;;16.21;58.74;101700.78;5031310;28;98223;-66
2022/10/03 07:05:00;;;;;;;14.32;2.22;;;;;;;16.48;57.72;101702.22;5030070;28;99031;-65
2022/10/03 07:07:56;;;;;;;21.02;2.55;;;;;;;16.03;58.98;101713.09;5030555;28;97173;-66
2022/10/03 07:10:35;;;;;;;18.20;2.25;;;;;;;16.59;57.60;101717.75;5034103;28;96770;-66
2022/10/03 07:13:22;;;;;;;19.75;2.13;;;;;;;16.77;56.57;101716.94;5032884;28;99310;-66
2022/10/03 07:16:19;;;;;;;16.95;2.17;;;;;;;16.71;56.88;101714.56;5030415;28;101039;-66
2022/10/03 07:19:11;;;;;;;11.65;1.75;;;;;;;16.20;58.20;101728.38;5029582;28;98518;-66
2022/10/03 07:22:33;;;;;;;13.55;1.75;;;;;;;16.78;56.59;101734.69;5018258;27;97235;-66
2022/10/03 07:25:31;;;;;;;19.45;2.17;;;;;;;16.95;55.83;101732.09;5032857;28;98925;-66
2022/10/03 07:28:27;;;;;;;12.68;1.95;;;;;;;16.97;55.92;101729.38;5028921;28;98801;-66
2022/10/03 07:31:06;;;;;;;19.60;3.53;;;;;;;17.03;55.35;101729.94;5031120;27;96996;-66
2022/10/03 07:33:57;;;;;;;17.52;3.10;;;;;;;16.87;55.82;101734.25;5030590;28;96932;-66
2022/10/03 07:40:18;;;;;;;13.73;2.08;;;;;;;16.83;55.79;101743.34;5026500;28;97146;-66
2022/10/03 07:43:02;;;;;;;18.55;3.13;;;;;;;16.89;55.73;101742.19;5032296;28;97006;-66
2022/10/03 07:45:34;;;;;;;14.70;2.17;;;;;;;16.99;55.04;101739.06;5031778;28;96830;-66
2022/10/03 07:48:44;;;;;;;12.60;1.95;;;;;;;16.73;55.31;101750.94;5027519;28;101064;-66
2022/10/03 07:51:23;;;;;;;12.25;1.83;;;;;;;16.86;55.58;101753.91;5029586;28;99277;-65
2022/10/03 07:54:43;;;;;;;17.95;3.10;;;;;;;17.28;53.99;101760.84;5028769;28;96827;-67
2022/10/03 07:57:26;;;;;;;27.45;2.55;;;;;;;17.36;53.47;101756.00;5029408;28;98283;-66
2022/10/03 08:00:10;;;;;;;16.05;2.00;;;;;;;17.32;53.44;101760.63;5031256;28;98855;-66
2022/10/03 08:03:17;;;;;;;21.27;2.45;;;;;;;17.95;52.18;101766.47;5015876;28;99100;-66
2022/10/03 08:06:02;;;;;;;13.93;2.72;;;;;;;17.80;51.96;101769.91;5026620;28;97334;-66
2022/10/03 08:08:55;;;;;;;13.43;2.10;;;;;;;17.84;51.71;101774.19;5029656;28;97493;-66
2022/10/03 08:11:37;;;;;;;20.85;2.30;;;;;;;17.71;51.85;101775.72;5013958;28;99111;-67
2022/10/03 08:14:20;;;;;;;15.20;2.33;;;;;;;17.91;50.80;101772.94;5025865;28;99279;-66
2022/10/03 08:17:17;;;;;;;13.52;2.00;;;;;;;17.57;51.72;101773.69;5028787;28;98692;-66
2022/10/03 08:20:17;;;;;;;18.80;2.22;;;;;;;17.62;51.87;101778.81;5026619;28;96803;-66
2022/10/03 08:22:59;;;;;;;15.52;2.47;;;;;;;16.80;53.73;101780.00;5023169;28;101174;-66
2022/10/03 08:25:42;;;;;;;15.20;2.83;;;;;;;17.42;52.42;101777.94;5024647;27;100704;-66
2022/10/03 08:28:28;;;;;;;16.75;1.95;;;;;;;17.80;51.56;101784.13;5025127;28;97113;-67
2022/10/03 08:31:19;;;;;;;16.15;2.55;;;;;;;18.14;50.60;101787.81;5026662;28;98905;-66
2022/10/03 08:34:04;;;;;;;14.60;2.05;;;;;;;18.22;49.63;101790.97;5025214;28;99932;-66
2022/10/03 08:36:52;;;;;;;17.27;2.70;;;;;;;18.25;49.39;101799.69;5027577;28;99214;-67
2022/10/03 08:39:41;;;;;;;19.92;3.50;;;;;;;17.96;50.14;101796.75;5023369;28;96844;-67
2022/10/03 08:42:36;;;;;;;25.15;3.67;;;;;;;17.78;50.58;101801.22;5023828;27;97835;-67
2022/10/03 08:45:30;;;;;;;16.65;2.60;;;;;;;17.75;50.82;101799.53;5026765;28;98882;-66
2022/10/03 08:48:42;;;;;;;17.00;2.60;;;;;;;17.83;50.98;101802.72;5026058;28;98884;-66
2022/10/03 08:51:46;;;;;;;13.82;2.58;;;;;;;17.91;50.72;101803.22;5029663;28;96758;-66
2022/10/03 08:54:35;;;;;;;10.57;1.75;;;;;;;17.61;51.37;101807.34;5027483;28;97286;-67
2022/10/03 08:57:18;;;;;;;20.50;5.82;;;;;;;17.96;50.54;101808.31;5025371;28;98961;-66
2022/10/03 09:00:14;;;;;;;14.13;2.72;;;;;;;18.39;49.62;101812.38;5025629;28;98797;-66
2022/10/03 09:03:10;;;;;;;20.77;3.20;;;;;;;18.05;50.32;101794.47;5026703;28;96877;-67
2022/10/03 09:06:23;;;;;;;17.00;2.58;;;;;;;17.87;50.65;101806.09;5022668;28;98496;-67
2022/10/03 09:09:19;;;;;;;18.95;2.35;;;;;;;18.16;50.15;101815.34;5027624;27;99380;-67
2022/10/03 09:12:33;;;;;;;16.90;2.22;;;;;;;17.48;51.07;101804.38;5022462;27;99321;-67
2022/10/03 09:15:15;;;;;;;14.02;2.33;;;;;;;17.66;51.31;101813.34;5025356;28;97043;-66
2022/10/03 09:18:16;;;;;;;12.88;2.40;;;;;;;17.96;50.67;101807.47;5028855;28;96983;-68
2022/10/03 09:21:09;;;;;;;18.25;3.50;;;;;;;18.82;48.72;101804.81;5027871;28;99265;-66
2022/10/03 09:23:53;;;;;;;16.55;2.67;;;;;;;18.70;48.40;101804.53;5028066;28;98960;-66
2022/10/03 09:26:46;;;;;;;22.33;3.40;;;;;;;18.94;47.68;101801.50;5025845;27;97914;-66
2022/10/03 09:29:40;;;;;;;19.65;2.88;;;;;;;18.78;48.20;101809.47;5027831;28;98626;-66
2022/10/03 09:33:00;;;;;;;15.80;2.10;;;;;;;19.25;47.43;101814.09;4979371;27;99194;-66
2022/10/03 09:35:49;;;;;;;15.93;2.55;;;;;;;19.36;47.29;101812.53;5018573;28;99098;-66
2022/10/03 09:38:57;;;;;;;14.55;2.15;;;;;;;19.09;47.34;101806.91;5027065;28;96797;-67
2022/10/03 09:41:43;;;;;;;;;;;;;;;19.72;45.80;101806.97;5025292;28;96877;-67
2022/10/03 09:44:39;;;;;;;14.10;3.03;;;;;;;20.15;44.55;101801.81;5025228;28;99100;-66
2022/10/03 09:47:31;;;;;;;19.50;3.23;;;;;;;19.74;45.77;101801.53;5022488;28;99332;-67
2022/10/03 09:50:39;;;;;;;12.00;2.25;;;;;;;19.85;45.31;101813.38;5019098;27;97008;-68
2022/10/03 09:53:48;;;;;;;15.35;2.50;;;;;;;19.97;44.95;101818.97;5000830;28;97804;-66
2022/10/03 09:56:53;;;;;;;20.02;3.30;;;;;;;20.08;44.81;101814.75;5025058;28;97906;-66
2022/10/03 09:59:47;;;;;;;13.18;2.63;;;;;;;20.12;44.20;101818.97;5022368;28;98371;-67
2022/10/03 10:02:42;;;;;;;13.88;2.88;;;;;;;19.68;44.97;101824.19;5023977;28;97785;-66
2022/10/03 10:05:35;;;;;;;12.15;2.38;;;;;;;18.96;46.41;101818.34;5020926;28;98566;-67
2022/10/03 10:08:33;;;;;;;16.15;2.03;;;;;;;19.26;46.07;101816.69;5024395;27;99385;-66
2022/10/03 10:11:39;;;;;;;19.77;3.05;;;;;;;19.76;45.26;101823.75;5021714;28;98848;-68
2022/10/03 10:14:29;;;;;;;13.32;2.03;;;;;;;19.82;45.38;101818.06;5019045;28;96988;-67
2022/10/03 10:17:26;;;;;;;14.45;2.47;;;;;;;20.14;44.95;101819.75;5017493;28;98588;-66
2022/10/03 10:20:06;;;;;;;21.20;4.75;;;;;;;20.28;44.57;101819.78;5024563;28;98840;-66
2022/10/03 10:22:56;;;;;;;11.93;2.50;;;;;;;19.80;45.32;101817.28;5019452;28;98773;-66
2022/10/03 10:25:40;;;;;;;16.67;2.50;;;;;;;19.02;47.71;101818.03;5021211;28;96923;-66
2022/10/03 10:28:37;;;;;;;18.42;2.53;;;;;;;19.30;47.39;101815.56;5025850;28;97129;-66
2022/10/03 10:31:37;;;;;;;15.68;3.47;;;;;;;19.17;47.60;101809.13;5020861;28;98759;-67
2022/10/03 10:34:46;;;;;;;18.13;2.40;;;;;;;19.80;46.24;101798.50;5022389;28;98961;-65
2022/10/03 10:37:46;;;;;;;10.43;2.42;;;;;;;19.76;45.84;101802.28;5028698;28;96870;-66
2022/10/03 10:40:53;;;;;;;14.05;3.22;;;;;;;19.76;45.67;101796.91;5030639;28;97184;-68
2022/10/03 10:43:49;;;;;;;17.88;2.55;;;;;;;19.94;45.55;101803.94;4970323;27;99645;-68
2022/10/03 10:46:50;;;;;;;11.95;2.72;;;;;;;20.07;45.13;101799.59;5024277;27;99417;-67
2022/10/03 10:49:56;;;;;;;12.13;2.15;;;;;;;20.20;44.42;101805.09;5032309;28;97226;-66
2022/10/03 10:52:46;;;;;;;23.40;6.55;;;;;;;20.15;44.45;101797.28;5016351;28;97391;-67
2022/10/03 10:55:52;;;;;;;13.40;2.40;;;;;;;20.64;43.44;101789.91;5028637;28;99043;-66
2022/10/03 10:59:00;;;;;;;10.23;2.10;;;;;;;20.55;43.71;101794.94;5027828;28;99267;-66
2022/10/03 11:02:12;;;;;;;13.50;2.28;;;;;;;20.62;44.27;101793.63;5027549;28;97418;-66
2022/10/03 11:05:33;;;;;;;14.98;2.20;;;;;;;20.25;45.43;101803.88;4991470;28;97394;-66
2022/10/03 11:08:44;;;;;;;12.25;1.98;;;;;;;20.42;45.08;101808.25;5029236;28;99099;-66
2022/10/03 11:11:42;;;;;;;11.88;2.20;;;;;;;19.84;46.52;101803.59;5028535;28;98858;-66
2022/10/03 11:14:58;;;;;;;10.93;1.95;;;;;;;19.87;46.27;101807.94;5030179;28;97267;-67
2022/10/03 11:18:08;;;;;;;10.93;2.30;;;;;;;19.95;46.19;101800.31;5027739;28;97127;-66
2022/10/03 11:21:12;;;;;;;14.48;2.17;;;;;;;19.74;46.28;101798.84;5029501;28;99897;-67
2022/10/03 11:24:14;;;;;;;11.27;2.15;;;;;;;19.93;46.72;101806.69;5027775;28;100094;-67
2022/10/03 11:27:14;;;;;;;9.05;2.05;;;;;;;19.83;46.73;101803.66;5003075;28;97229;-66
2022/10/03 11:30:13;;;;;;;12.90;2.30;;;;;;;19.85;47.11;101802.63;5027431;28;97160;-66
2022/10/03 11:33:14;;;;;;;13.95;2.17;;;;;;;19.78;48.14;101819.16;5027743;27;97881;-67
2022/10/03 11:36:12;;;;;;;7.97;1.98;;;;;;;20.42;46.92;101819.00;5027792;28;99069;-65
2022/10/03 11:38:45;;;;;;;;;;;;;;;20.21;47.41;101813.06;5029176;28;96802;-65
2022/10/03 11:41:21;;;;;;;10.77;2.30;;;;;;;20.19;47.43;101812.28;5031357;28;97329;-66
2022/10/03 11:44:12;;;;;;;14.43;2.25;;;;;;;20.10;47.77;101820.84;5025759;28;99229;-67
2022/10/03 11:47:20;;;;;;;8.40;1.15;;;;;;;19.37;49.89;101814.28;5021409;28;98738;-66
2022/10/03 11:50:18;;;;;;;8.98;1.60;;;;;;;19.68;49.39;101812.59;5029339;28;97940;-65
2022/10/03 11:53:00;;;;;;;9.65;1.70;;;;;;;19.87;48.88;101810.59;4989400;27;98877;-67
2022/10/03 11:55:34;;;;;;;6.75;1.30;;;;;;;19.81;49.45;101810.97;5022626;28;99250;-66
2022/10/03 11:58:22;;;;;;;8.77;1.40;;;;;;;19.95;49.17;101815.53;5028364;28;98778;-66
2022/10/03 12:01:00;;;;;;;14.93;2.65;;;;;;;19.65;49.82;101805.59;5024456;28;98845;-65
2022/10/03 12:03:46;;;;;;;11.60;2.55;;;;;;;20.06;49.40;101818.44;5020259;27;99283;-65
2022/10/03 12:09:17;;;;;;;12.45;2.25;;;;;;;19.54;50.65;101805.34;4990807;27;97745;-68
2022/10/03 12:11:54;;;;;;;9.65;1.70;;;;;;;19.31;51.22;101806.56;5027625;27;96814;-67
2022/10/03 12:14:28;;;;;;;11.27;1.58;;;;;;;19.74;50.43;101804.22;5026109;27;97325;-66
2022/10/03 12:17:05;;;;;;;11.45;2.05;;;;;;;19.12;51.68;101800.50;5030673;27;98199;-66
2022/10/03 12:19:38;;;;;;;9.38;1.70;;;;;;;19.41;51.51;101783.69;5028294;27;99603;-66
2022/10/03 12:22:21;;;;;;;12.43;2.42;;;;;;;19.24;52.04;101789.09;5026679;27;96833;-66
2022/10/03 12:24:50;;;;;;;12.35;1.73;;;;;;;19.41;51.66;101785.50;5023009;28;97356;-67
2022/10/03 12:27:29;;;;;;;10.43;1.75;;;;;;;19.68;50.26;101778.63;5027638;28;98908;-67
2022/10/03 12:29:58;;;;;;;11.15;1.95;;;;;;;19.71;49.95;101781.09;5023284;28;99331;-67
2022/10/03 12:32:32;;;;;;;9.63;2.13;;;;;;;19.80;49.84;101787.78;5027269;28;97264;-66
2022/10/03 12:35:13;;;;;;;15.15;2.38;;;;;;;20.34;48.67;101797.13;5021598;28;97509;-66
2022/10/03 12:37:53;;;;;;;7.90;1.77;;;;;;;20.18;48.72;101791.75;5023146;28;98972;-67
2022/10/03 12:40:26;;;;;;;15.40;2.72;;;;;;;20.42;48.53;101793.97;5028256;28;100059;-66
2022/10/03 12:43:05;;;;;;;12.90;2.20;;;;;;;20.70;47.06;101788.66;5024193;28;96840;-67
2022/10/03 12:45:38;;;;;;;11.85;2.55;;;;;;;20.78;47.14;101790.88;5028893;28;97022;-67
2022/10/03 12:48:23;;;;;;;13.30;2.80;;;;;;;21.28;45.26;101793.09;5029072;27;99353;-68
2022/10/03 12:50:55;;;;;;;8.55;1.45;;;;;;;21.17;45.69;101787.56;5021371;28;98217;-66
2022/10/03 12:53:45;;;;;;;9.25;2.03;;;;;;;21.08;45.24;101779.06;5025885;28;97605;-67
2022/10/03 12:56:25;;;;;;;14.30;2.35;;;;;;;21.23;45.57;101777.28;5023745;27;96975;-68
2022/10/03 12:59:12;;;;;;;6.60;1.67;;;;;;;21.04;44.87;101777.53;5020472;27;98853;-68
2022/10/03 13:01:58;;;;;;;11.25;1.60;;;;;;;20.34;46.77;101777.47;5029003;28;98875;-68
2022/10/03 13:04:38;;;;;;;7.55;1.55;;;;;;;20.23;47.34;101773.56;5021985;28;96824;-67
2022/10/03 13:07:25;;;;;;;7.20;1.48;;;;;;;20.65;46.48;101785.38;5029948;28;96776;-66
2022/10/03 13:10:15;;;;;;;7.57;1.45;;;;;;;21.54;44.15;101780.66;5025547;28;101171;-68